This is the latest recevied weather packets stored in our database for station/object K4CRS-13. If no packets are shown the sender has not sent any weather packets the latest 1 day(s).
| Time | Temp. | Humidity | Pressure | Rain* | Wind** | Luminosity | Snow |
|---|---|---|---|---|---|---|---|
| 1777994826 | 22.22° C | 63% | 1048.6 hPa | 0 mm | 0.89 m/s, 176° | 708 W/m² | - |
| 1777994522 | 22.22° C | 63% | 1048.7 hPa | 0 mm | 2.24 m/s, 194° | 691 W/m² | - |
| 1777994217 | 21.67° C | 65% | 1048.7 hPa | 0 mm | 1.34 m/s, 188° | 670 W/m² | - |
| 1777993915 | 21.67° C | 67% | 1048.7 hPa | 0 mm | 0.45 m/s, 189° | 650 W/m² | - |
| 1777993611 | 22.22° C | 65% | 1048.9 hPa | 0 mm | 1.34 m/s, 183° | 641 W/m² | - |
| 1777993309 | 21.67° C | 65% | 1049 hPa | 0 mm | 1.79 m/s, 187° | 642 W/m² | - |
| 1777993009 | 22.22° C | 66% | 1048.9 hPa | 0 mm | 0.89 m/s, 187° | 626 W/m² | - |
| 1777992708 | 21.67° C | 67% | 1048.9 hPa | 0 mm | 0.45 m/s, 186° | 612 W/m² | - |
| 1777992405 | 21.67° C | 66% | 1049 hPa | 0 mm | 1.34 m/s, 189° | 595 W/m² | - |
| 1777992103 | 21.11° C | 68% | 1048.9 hPa | 0 mm | 0.89 m/s, 176° | 582 W/m² | - |
| 1777991800 | 20.56° C | 69% | 1048.8 hPa | 0 mm | 0 m/s | 558 W/m² | - |
| 1777991497 | 20.56° C | 68% | 1048.7 hPa | 0 mm | 1.34 m/s, 188° | 540 W/m² | - |
| 1777991194 | 20.56° C | 67% | 1048.6 hPa | 0 mm | 1.79 m/s, 196° | 547 W/m² | - |
| 1777990891 | 20.56° C | 69% | 1048.8 hPa | 0 mm | 0.45 m/s, 169° | 515 W/m² | - |
| 1777990589 | 20.56° C | 69% | 1048.6 hPa | 0 mm | 0.89 m/s, 165° | 489 W/m² | - |
| 1777990285 | 20° C | 69% | 1048.6 hPa | 0 mm | 0.89 m/s, 175° | 479 W/m² | - |
| 1777989982 | 20° C | 70% | 1048.6 hPa | 0 mm | 0.89 m/s, 162° | 488 W/m² | - |
| 1777989679 | 19.44° C | 70% | 1048.6 hPa | 0 mm | 1.34 m/s, 170° | 462 W/m² | - |
| 1777989375 | 19.44° C | 70% | 1048.6 hPa | 0 mm | 0.89 m/s, 174° | 433 W/m² | - |
| 1777989072 | 19.44° C | 70% | 1048.4 hPa | 0 mm | 0.89 m/s, 173° | 427 W/m² | - |
| 1777988767 | 19.44° C | 72% | 1048.4 hPa | 0 mm | 0.89 m/s, 197° | 411 W/m² | - |
| 1777988465 | 18.89° C | 73% | 1048.7 hPa | 0 mm | 0.45 m/s, 170° | 365 W/m² | - |
| 1777988162 | 18.89° C | 72% | 1048.6 hPa | 0 mm | 1.34 m/s, 191° | 349 W/m² | - |
| 1777987858 | 18.33° C | 72% | 1048.7 hPa | 0 mm | 1.34 m/s, 193° | 358 W/m² | - |
| 1777987554 | 18.89° C | 72% | 1048.6 hPa | 0 mm | 0.45 m/s, 185° | 294 W/m² | - |
* Rain latest hour (hover to see other rain measurements)
** Current wind speed in m/s (hover to see current wind gust speed)